Time,TemperatureF,DewpointF,PressureIn,WindDirection,WindDirectionDegrees,WindSpeedMPH,WindSpeedGustMPH,Humidity,HourlyPrecipIn,Conditions,Clouds,dailyrainin,SoftwareType,DateUTC
2013-03-01 00:06:00,27.0,23.1,30.16,NNW,337,3.7,-999.0,85,-99.99,,,0.00,Acu-Link.com,2013-03-01 06:06:00,
2013-03-01 00:21:00,27.0,23.4,30.17,West,270,1.7,-999.0,86,-99.99,,,0.00,Acu-Link.com,2013-03-01 06:21:00,
2013-03-01 00:36:00,26.8,23.5,30.16,North,0,0.0,-999.0,87,-99.99,,,0.00,Acu-Link.com,2013-03-01 06:36:00,
2013-03-01 00:51:00,26.6,23.3,30.16,NNE,22,2.2,-999.0,87,-99.99,,,0.00,Acu-Link.com,2013-03-01 06:51:00,
2013-03-01 01:06:00,26.6,23.3,30.17,WNW,292,1.7,-999.0,87,-99.99,,,0.00,Acu-Link.com,2013-03-01 07:06:00,
2013-03-01 01:22:00,26.6,23.3,30.16,NNE,22,2.2,-999.0,87,-99.99,,,0.00,Acu-Link.com,2013-03-01 07:22:00,
2013-03-01 01:37:00,26.4,23.1,30.16,ENE,67,1.7,-999.0,87,-99.99,,,0.00,Acu-Link.com,2013-03-01 07:37:00,
2013-03-01 01:52:00,26.4,23.1,30.17,NE,45,2.2,-999.0,87,-99.99,,,0.00,Acu-Link.com,2013-03-01 07:52:00,
2013-03-01 02:08:00,26.2,22.9,30.17,West,270,2.7,-999.0,87,-99.99,,,0.00,Acu-Link.com,2013-03-01 08:08:00,
2013-03-01 02:23:00,26.2,21.8,30.17,WNW,292,3.7,-999.0,83,-99.99,,,0.00,Acu-Link.com,2013-03-01 08:23:00,
2013-03-01 02:38:00,26.2,21.8,30.18,West,270,4.7,-999.0,83,-99.99,,,0.00,Acu-Link.com,2013-03-01 08:38:00,
2013-03-01 02:54:00,26.2,21.8,30.17,NNW,337,4.7,-999.0,83,-99.99,,,0.00,Acu-Link.com,2013-03-01 08:54:00,
2013-03-01 03:20:00,26.2,22.0,30.17,NW,315,3.2,-999.0,84,-99.99,,,0.00,Acu-Link.com,2013-03-01 09:20:00,
2013-03-01 03:35:00,25.5,21.1,30.16,West,270,4.7,-999.0,83,-99.99,,,0.00,Acu-Link.com,2013-03-01 09:35:00,
2013-03-01 03:50:00,25.5,21.6,30.17,ENE,67,2.2,-999.0,85,-99.99,,,0.00,Acu-Link.com,2013-03-01 09:50:00,
2013-03-01 04:05:00,25.3,21.4,30.17,NNW,337,3.2,-999.0,85,-99.99,,,0.00,Acu-Link.com,2013-03-01 10:05:00,
2013-03-01 04:20:00,25.2,21.6,30.17,West,270,2.7,-999.0,86,-99.99,,,0.00,Acu-Link.com,2013-03-01 10:20:00,
2013-03-01 04:35:00,24.8,21.2,30.17,NNE,22,3.2,-999.0,86,-99.99,,,0.00,Acu-Link.com,2013-03-01 10:35:00,
2013-03-01 04:51:00,24.6,21.0,30.17,WNW,292,3.2,-999.0,86,-99.99,,,0.00,Acu-Link.com,2013-03-01 10:51:00,
2013-03-01 05:06:00,24.6,21.0,30.17,NNE,22,3.2,-999.0,86,-99.99,,,0.00,Acu-Link.com,2013-03-01 11:06:00,
2013-03-01 05:21:00,24.6,21.3,30.17,WNW,292,4.7,-999.0,87,-99.99,,,0.00,Acu-Link.com,2013-03-01 11:21:00,
2013-03-01 05:36:00,24.6,21.3,30.17,West,270,3.2,-999.0,87,-99.99,,,0.00,Acu-Link.com,2013-03-01 11:36:00,
2013-03-01 05:52:00,24.8,21.8,30.17,NNW,337,1.7,-999.0,88,-99.99,,,0.00,Acu-Link.com,2013-03-01 11:52:00,
2013-03-01 06:07:00,24.8,21.8,30.17,NNW,337,2.2,-999.0,88,-99.99,,,0.00,Acu-Link.com,2013-03-01 12:07:00,
2013-03-01 06:22:00,24.8,21.5,30.18,NNE,22,1.7,-999.0,87,-99.99,,,0.00,Acu-Link.com,2013-03-01 12:22:00,
2013-03-01 06:37:00,24.8,21.5,30.18,West,270,2.2,-999.0,87,-99.99,,,0.00,Acu-Link.com,2013-03-01 12:37:00,
2013-03-01 06:52:00,24.8,21.5,30.18,NNE,22,10.9,-999.0,87,-99.99,,,0.00,Acu-Link.com,2013-03-01 12:52:00,
2013-03-01 07:07:00,24.8,21.5,30.18,NW,315,4.2,-999.0,87,-99.99,,,0.00,Acu-Link.com,2013-03-01 13:07:00,
2013-03-01 07:22:00,24.8,21.2,30.19,NNE,22,3.7,-999.0,86,-99.99,,,0.00,Acu-Link.com,2013-03-01 13:22:00,
2013-03-01 07:38:00,24.8,21.2,30.19,North,0,3.7,-999.0,86,-99.99,,,0.00,Acu-Link.com,2013-03-01 13:38:00,
2013-03-01 07:53:00,24.8,20.9,30.20,North,0,6.3,-999.0,85,-99.99,,,0.00,Acu-Link.com,2013-03-01 13:53:00,
2013-03-01 08:08:00,25.0,21.1,30.19,NNW,337,4.2,-999.0,85,-99.99,,,0.00,Acu-Link.com,2013-03-01 14:08:00,
2013-03-01 08:23:00,25.3,21.4,30.20,NNE,22,2.7,-999.0,85,-99.99,,,0.00,Acu-Link.com,2013-03-01 14:23:00,
2013-03-01 08:39:00,25.5,21.4,30.21,ESE,112,4.2,-999.0,84,-99.99,,,0.00,Acu-Link.com,2013-03-01 14:39:00,
2013-03-01 08:54:00,26.4,21.7,30.20,North,0,3.7,-999.0,82,-99.99,,,0.00,Acu-Link.com,2013-03-01 14:54:00,
2013-03-01 09:09:00,26.2,21.2,30.21,East,90,7.8,-999.0,81,-99.99,,,0.00,Acu-Link.com,2013-03-01 15:09:00,
2013-03-01 09:25:00,26.8,20.9,30.22,NNE,22,3.7,-999.0,78,-99.99,,,0.00,Acu-Link.com,2013-03-01 15:25:00,
2013-03-01 09:40:00,26.8,20.9,30.22,SW,225,5.8,-999.0,78,-99.99,,,0.00,Acu-Link.com,2013-03-01 15:40:00,
2013-03-01 09:55:00,27.0,21.1,30.22,NNW,337,4.2,-999.0,78,-99.99,,,0.00,Acu-Link.com,2013-03-01 15:55:00,
2013-03-01 10:10:00,27.3,21.4,30.23,North,0,4.2,-999.0,78,-99.99,,,0.00,Acu-Link.com,2013-03-01 16:10:00,
2013-03-01 10:25:00,27.3,21.1,30.23,NNW,337,3.7,-999.0,77,-99.99,,,0.00,Acu-Link.com,2013-03-01 16:25:00,
2013-03-01 10:40:00,27.5,20.9,30.23,North,0,5.8,-999.0,76,-99.99,,,0.00,Acu-Link.com,2013-03-01 16:40:00,
2013-03-01 10:55:00,27.9,21.0,30.22,West,270,4.7,-999.0,75,-99.99,,,0.00,Acu-Link.com,2013-03-01 16:55:00,
2013-03-01 11:11:00,28.4,21.2,30.23,NNE,22,2.2,-999.0,74,-99.99,,,0.00,Acu-Link.com,2013-03-01 17:11:00,
2013-03-01 11:26:00,28.2,21.6,30.22,East,90,4.2,-999.0,76,-99.99,,,0.00,Acu-Link.com,2013-03-01 17:26:00,
2013-03-01 11:41:00,28.2,21.3,30.24,WNW,292,4.7,-999.0,75,-99.99,,,0.00,Acu-Link.com,2013-03-01 17:41:00,
2013-03-01 11:57:00,29.1,21.2,30.24,NNE,22,4.2,-999.0,72,-99.99,,,0.00,Acu-Link.com,2013-03-01 17:57:00,
2013-03-01 12:12:00,30.2,21.6,30.24,North,0,2.7,-999.0,70,-99.99,,,0.00,Acu-Link.com,2013-03-01 18:12:00,
2013-03-01 12:27:00,29.8,21.6,30.25,North,0,5.8,-999.0,71,-99.99,,,0.00,Acu-Link.com,2013-03-01 18:27:00,
2013-03-01 12:42:00,30.2,21.6,30.24,NNE,22,2.7,-999.0,70,-99.99,,,0.00,Acu-Link.com,2013-03-01 18:42:00,
2013-03-01 12:57:00,31.5,22.5,30.23,East,90,4.2,-999.0,69,-99.99,,,0.00,Acu-Link.com,2013-03-01 18:57:00,
2013-03-01 13:13:00,31.3,22.0,30.22,NW,315,3.7,-999.0,68,-99.99,,,0.00,Acu-Link.com,2013-03-01 19:13:00,
2013-03-01 13:28:00,32.2,21.8,30.22,NE,45,3.7,-999.0,65,-99.99,,,0.00,Acu-Link.com,2013-03-01 19:28:00,
2013-03-01 13:43:00,34.3,22.7,30.22,North,0,8.9,-999.0,62,-99.99,,,0.00,Acu-Link.com,2013-03-01 19:43:00,
2013-03-01 13:58:00,32.4,22.3,30.21,NNE,22,4.2,-999.0,66,-99.99,,,0.00,Acu-Link.com,2013-03-01 19:58:00,
2013-03-01 14:14:00,32.2,22.5,30.21,North,0,5.8,-999.0,67,-99.99,,,0.00,Acu-Link.com,2013-03-01 20:14:00,
2013-03-01 14:29:00,33.8,22.6,30.21,NNE,22,5.3,-999.0,63,-99.99,,,0.00,Acu-Link.com,2013-03-01 20:29:00,
2013-03-01 14:44:00,34.0,22.4,30.21,NW,315,7.8,-999.0,62,-99.99,,,0.00,Acu-Link.com,2013-03-01 20:44:00,
2013-03-01 14:59:00,32.5,22.1,30.21,WNW,292,8.3,-999.0,65,-99.99,,,0.00,Acu-Link.com,2013-03-01 20:59:00,
2013-03-01 15:14:00,32.5,22.1,30.21,West,270,6.3,-999.0,65,-99.99,,,0.00,Acu-Link.com,2013-03-01 21:14:00,
2013-03-01 15:30:00,33.1,21.9,30.21,WNW,292,6.3,-999.0,63,-99.99,,,0.00,Acu-Link.com,2013-03-01 21:30:00,
2013-03-01 15:45:00,33.1,22.3,30.21,WNW,292,4.7,-999.0,64,-99.99,,,0.00,Acu-Link.com,2013-03-01 21:45:00,
2013-03-01 16:00:00,33.6,22.0,30.21,NE,45,4.2,-999.0,62,-99.99,,,0.00,Acu-Link.com,2013-03-01 22:00:00,
2013-03-01 16:15:00,33.4,21.8,30.20,North,0,3.2,-999.0,62,-99.99,,,0.00,Acu-Link.com,2013-03-01 22:15:00,
2013-03-01 16:31:00,32.9,21.7,30.22,NW,315,5.3,-999.0,63,-99.99,,,0.00,Acu-Link.com,2013-03-01 22:31:00,
2013-03-01 16:46:00,33.1,22.3,30.22,NW,315,7.8,-999.0,64,-99.99,,,0.00,Acu-Link.com,2013-03-01 22:46:00,
2013-03-01 17:01:00,31.8,21.4,30.23,West,270,5.3,-999.0,65,-99.99,,,0.00,Acu-Link.com,2013-03-01 23:01:00,
2013-03-01 17:16:00,32.7,21.9,30.23,West,270,3.2,-999.0,64,-99.99,,,0.00,Acu-Link.com,2013-03-01 23:16:00,
2013-03-01 17:32:00,30.6,21.0,30.24,WNW,292,4.7,-999.0,67,-99.99,,,0.00,Acu-Link.com,2013-03-01 23:32:00,
2013-03-01 17:47:00,29.3,20.4,30.23,NW,315,4.2,-999.0,69,-99.99,,,0.00,Acu-Link.com,2013-03-01 23:47:00,
2013-03-01 18:02:00,28.6,20.7,30.23,SSW,202,1.7,-999.0,72,-99.99,,,0.00,Acu-Link.com,2013-03-02 00:02:00,
2013-03-01 18:17:00,27.3,20.4,30.24,NW,315,2.7,-999.0,75,-99.99,,,0.00,Acu-Link.com,2013-03-02 00:17:00,
2013-03-01 18:33:00,26.1,20.2,30.24,NNW,337,2.2,-999.0,78,-99.99,,,0.00,Acu-Link.com,2013-03-02 00:33:00,
2013-03-01 18:48:00,25.2,19.9,30.24,NW,315,1.7,-999.0,80,-99.99,,,0.00,Acu-Link.com,2013-03-02 00:48:00,
2013-03-01 19:03:00,24.4,19.1,30.25,NNW,337,2.7,-999.0,80,-99.99,,,0.00,Acu-Link.com,2013-03-02 01:03:00,
2013-03-01 19:18:00,23.7,19.0,30.25,WNW,292,2.7,-999.0,82,-99.99,,,0.00,Acu-Link.com,2013-03-02 01:18:00,
2013-03-01 19:33:00,23.2,18.5,30.25,West,270,0.0,-999.0,82,-99.99,,,0.00,Acu-Link.com,2013-03-02 01:33:00,
2013-03-01 19:49:00,22.6,18.5,30.25,WNW,292,0.0,-999.0,84,-99.99,,,0.00,Acu-Link.com,2013-03-02 01:49:00,
2013-03-01 20:04:00,21.6,18.1,30.26,West,270,0.0,-999.0,86,-99.99,,,0.00,Acu-Link.com,2013-03-02 02:04:00,
2013-03-01 20:19:00,20.7,17.5,30.26,WNW,292,0.0,-999.0,87,-99.99,,,0.00,Acu-Link.com,2013-03-02 02:19:00,
2013-03-01 20:34:00,19.6,17.2,30.26,West,270,0.0,-999.0,90,-99.99,,,0.00,Acu-Link.com,2013-03-02 02:34:00,
2013-03-01 20:49:00,18.9,16.5,30.26,West,270,0.0,-999.0,90,-99.99,,,0.00,Acu-Link.com,2013-03-02 02:49:00,
2013-03-01 21:05:00,18.0,15.8,30.26,WSW,247,0.0,-999.0,91,-99.99,,,0.00,Acu-Link.com,2013-03-02 03:05:00,
2013-03-01 21:20:00,17.6,16.2,30.26,West,270,0.0,-999.0,94,-99.99,,,0.00,Acu-Link.com,2013-03-02 03:20:00,
2013-03-01 21:35:00,17.1,15.4,30.26,West,270,0.0,-999.0,93,-99.99,,,0.00,Acu-Link.com,2013-03-02 03:35:00,
2013-03-01 21:50:00,16.0,14.1,30.26,West,270,0.0,-999.0,92,-99.99,,,0.00,Acu-Link.com,2013-03-02 03:50:00,
2013-03-01 22:06:00,15.3,13.6,30.27,West,270,0.0,-999.0,93,-99.99,,,0.00,Acu-Link.com,2013-03-02 04:06:00,
2013-03-01 22:21:00,14.7,13.3,30.26,WNW,292,0.0,-999.0,94,-99.99,,,0.00,Acu-Link.com,2013-03-02 04:21:00,
2013-03-01 22:36:00,14.2,12.8,30.27,West,270,0.0,-999.0,94,-99.99,,,0.00,Acu-Link.com,2013-03-02 04:36:00,
2013-03-01 22:51:00,14.0,12.6,30.26,West,270,0.0,-999.0,94,-99.99,,,0.00,Acu-Link.com,2013-03-02 04:51:00,
2013-03-01 23:07:00,14.2,13.3,30.27,West,270,0.0,-999.0,96,-99.99,,,0.00,Acu-Link.com,2013-03-02 05:07:00,
2013-03-01 23:22:00,13.8,12.6,30.27,West,270,0.0,-999.0,95,-99.99,,,0.00,Acu-Link.com,2013-03-02 05:22:00,
2013-03-01 23:37:00,14.5,13.3,30.27,West,270,2.2,-999.0,95,-99.99,,,0.00,Acu-Link.com,2013-03-02 05:37:00,
2013-03-01 23:52:00,14.4,13.0,30.26,West,270,0.0,-999.0,94,-99.99,,,0.00,Acu-Link.com,2013-03-02 05:52:00,